Time;durP1;ratioP1;P1;durP2;ratioP2;P2;SDS_P1;SDS_P2;PMS_P1;PMS_P2;Temp;Humidity;BMP_temperature;BMP_pressure;BME280_temperature;BME280_humidity;BME280_pressure;Samples;Min_cycle;Max_cycle;Signal;HPM_P1;HPM_P2
2022/03/04 00:04:02;;;;;;;0.00;0.00;;;;;;;5.61;55.42;98812.84;4795701;29;20577;-82
2022/03/04 00:37:48;;;;;;;0.00;0.00;;;;;;;5.96;54.15;98796.69;4986941;23;20046;-81
2022/03/04 01:30:11;;;;;;;0.00;0.00;;;;;;;6.08;54.32;98768.19;4844320;29;20049;-79
2022/03/04 01:40:09;;;;;;;0.00;0.00;;;;;;;6.08;53.88;98762.88;5075416;24;20069;-81
2022/03/04 01:53:56;;;;;;;0.00;0.00;;;;;;;6.06;53.48;98749.81;4840234;29;20691;-81
2022/03/04 01:56:24;;;;;;;0.00;0.00;;;;;;;6.09;53.55;98751.19;4830823;29;20042;-80
2022/03/04 01:58:50;;;;;;;0.00;0.00;;;;;;;6.06;54.27;98749.03;4826718;29;20025;-81
2022/03/04 02:01:21;;;;;;;0.00;0.00;;;;;;;6.08;53.90;98741.63;4830447;29;20042;-81
2022/03/04 02:04:05;;;;;;;0.00;0.00;;;;;;;6.10;54.75;98739.50;4814979;29;20028;-82
2022/03/04 02:06:50;;;;;;;0.00;0.00;;;;;;;6.11;54.27;98737.66;4800153;29;20026;-81
2022/03/04 02:16:37;;;;;;;0.00;0.00;;;;;;;5.99;55.52;98719.25;4838043;29;20122;-81
2022/03/04 02:19:43;;;;;;;0.00;0.00;;;;;;;5.85;57.24;98722.28;4834711;29;20061;-81
2022/03/04 02:33:09;;;;;;;0.00;0.00;;;;;;;5.87;55.68;98725.50;4830356;29;20146;-80
2022/03/04 02:42:26;;;;;;;0.00;0.00;;;;;;;5.65;57.86;98720.28;4840941;29;20050;-82
2022/03/04 02:45:05;;;;;;;0.00;0.00;;;;;;;5.53;58.09;98722.25;4826393;29;20295;-80
2022/03/04 02:47:30;;;;;;;0.00;0.00;;;;;;;5.45;58.04;98715.56;4825948;29;20021;-78
2022/03/04 02:49:56;;;;;;;0.00;0.00;;;;;;;5.38;57.76;98721.06;4827771;29;20044;-80
2022/03/04 02:52:21;;;;;;;0.00;0.00;;;;;;;5.28;57.23;98713.81;4825772;29;20029;-80
2022/03/04 02:55:02;;;;;;;0.65;0.65;;;;;;;5.27;56.99;98708.75;4825946;29;20022;-80
2022/03/04 02:57:28;;;;;;;0.00;0.00;;;;;;;5.25;56.78;98716.97;4813351;29;20086;-79
2022/03/04 02:59:53;;;;;;;0.35;0.35;;;;;;;5.33;56.96;98728.16;4837910;29;20025;-79
2022/03/04 03:02:19;;;;;;;0.20;0.20;;;;;;;5.39;56.76;98729.81;4826032;29;20040;-80
2022/03/04 03:05:00;;;;;;;0.40;0.40;;;;;;;5.38;57.41;98718.44;4813000;29;20026;-81
2022/03/04 03:07:29;;;;;;;0.00;0.00;;;;;;;5.43;57.22;98722.97;4824173;29;20025;-83
2022/03/04 03:10:33;;;;;;;0.70;0.70;;;;;;;5.48;57.35;98723.03;4816816;29;20018;-81
2022/03/04 03:13:26;;;;;;;0.10;0.10;;;;;;;5.46;57.17;98733.09;4822776;29;20035;-81
2022/03/04 03:19:52;;;;;;;0.00;0.00;;;;;;;5.41;57.63;98725.88;4856406;29;20058;-82
2022/03/04 03:32:14;;;;;;;1.85;1.45;;;;;;;5.27;57.86;98717.50;4985656;24;19920;-83
2022/03/04 03:45:13;;;;;;;0.00;0.00;;;;;;;5.08;58.79;98724.19;4975943;24;20070;-81
2022/03/04 03:52:54;;;;;;;0.00;0.00;;;;;;;5.16;58.52;98726.38;5069494;24;20763;-79
2022/03/04 03:55:20;;;;;;;0.00;0.00;;;;;;;5.09;58.51;98728.41;4824796;29;20070;-79
2022/03/04 03:57:46;;;;;;;0.00;0.00;;;;;;;5.06;58.41;98726.28;4824895;29;20034;-80
2022/03/04 04:27:31;;;;;;;0.00;0.00;;;;;;;5.26;58.54;98746.91;4809766;29;20060;-80
2022/03/04 04:29:57;;;;;;;0.00;0.00;;;;;;;5.14;58.69;98741.75;4808335;29;20046;-80
2022/03/04 04:33:06;;;;;;;0.00;0.00;;;;;;;5.10;59.07;98743.28;5017093;24;20056;-83
2022/03/04 04:35:32;;;;;;;0.00;0.00;;;;;;;5.03;59.12;98745.31;4858798;29;20038;-82
2022/03/04 04:38:00;;;;;;;0.00;0.00;;;;;;;5.03;59.02;98740.00;4825179;29;20045;-81
2022/03/04 04:40:25;;;;;;;0.00;0.00;;;;;;;5.04;59.22;98738.97;4802760;29;20030;-81
2022/03/04 04:42:51;;;;;;;0.00;0.00;;;;;;;5.03;59.17;98735.53;4827904;29;20415;-81
2022/03/04 04:45:16;;;;;;;0.00;0.00;;;;;;;5.04;59.15;98734.50;4824609;29;20033;-80
2022/03/04 04:47:42;;;;;;;0.20;0.20;;;;;;;5.04;59.02;98739.78;4827317;29;20402;-81
2022/03/04 04:57:24;;;;;;;0.00;0.00;;;;;;;5.07;57.72;98741.94;4838000;29;20066;-84
2022/03/04 06:20:45;;;;;;;0.00;0.00;;;;;;;5.84;58.11;98772.97;4852825;29;20153;-80
2022/03/04 06:23:11;;;;;;;0.10;0.10;;;;;;;5.86;57.77;98776.97;4846046;24;20046;-80
2022/03/04 06:25:37;;;;;;;0.00;0.00;;;;;;;5.85;57.54;98763.97;4823060;29;20026;-76
2022/03/04 06:28:13;;;;;;;0.00;0.00;;;;;;;5.87;56.93;98770.63;4825112;29;20030;-82
2022/03/04 06:49:11;;;;;;;0.00;0.00;;;;;;;6.18;56.50;98800.13;4939052;23;20072;-78
2022/03/04 06:51:39;;;;;;;0.00;0.00;;;;;;;6.29;56.23;98805.53;4848677;29;20042;-81
2022/03/04 06:54:05;;;;;;;0.00;0.00;;;;;;;6.33;56.16;98802.09;4834565;29;20037;-82
2022/03/04 06:56:46;;;;;;;0.43;0.43;;;;;;;6.44;55.85;98802.19;4860537;24;20057;-82
2022/03/04 06:59:11;;;;;;;0.10;0.10;;;;;;;6.49;56.00;98792.38;4789710;29;20027;-80
2022/03/04 07:01:41;;;;;;;0.00;0.00;;;;;;;6.60;55.61;98797.78;4805579;29;20071;-81
2022/03/04 07:04:08;;;;;;;0.00;0.00;;;;;;;6.64;55.47;98796.19;4803207;29;20030;-81
2022/03/04 07:09:45;;;;;;;0.00;0.00;;;;;;;6.94;54.81;98792.91;5590270;23;20123;31
2022/03/04 07:38:30;;;;;;;0.00;0.00;;;;;;;8.72;50.09;98799.91;5157560;24;20042;-83
2022/03/04 07:55:21;;;;;;;0.00;0.00;;;;;;;9.56;47.97;98807.38;4748035;30;20058;-82
2022/03/04 08:01:28;;;;;;;0.00;0.00;;;;;;;9.89;47.23;98813.06;4710304;30;20553;-87
2022/03/04 08:07:55;;;;;;;0.00;0.00;;;;;;;10.20;45.48;98812.84;4717797;30;20080;-85
2022/03/04 08:13:54;;;;;;;0.00;0.00;;;;;;;10.47;44.48;98808.13;4732167;30;20048;-89
2022/03/04 08:16:53;;;;;;;0.00;0.00;;;;;;;10.59;42.04;98813.09;4737099;30;20489;-89
2022/03/04 08:20:09;;;;;;;0.00;0.00;;;;;;;10.64;42.31;98805.81;4721626;30;20520;-88
2022/03/04 08:23:26;;;;;;;0.00;0.00;;;;;;;10.78;41.78;98810.50;4761499;30;20054;-87
2022/03/04 08:27:00;;;;;;;;;;;;;;;10.78;41.80;98802.47;4787091;29;20148;-90
2022/03/04 08:30:02;;;;;;;0.10;0.10;;;;;;;10.82;41.42;98801.63;4794375;29;20003;-88
2022/03/04 08:33:38;;;;;;;0.05;0.05;;;;;;;10.92;40.51;98795.38;4785661;30;20082;-89
2022/03/04 08:36:22;;;;;;;0.00;0.00;;;;;;;10.90;40.62;98797.56;4778631;30;20085;-88
2022/03/04 08:39:10;;;;;;;0.45;0.45;;;;;;;10.97;39.50;98794.53;4770539;30;20110;-88
2022/03/04 08:41:56;;;;;;;0.00;0.00;;;;;;;11.08;38.97;98784.50;4775367;29;20044;-83
2022/03/04 08:44:21;;;;;;;0.22;0.22;;;;;;;11.12;38.73;98785.53;4770611;30;20514;-83
2022/03/04 08:46:47;;;;;;;0.25;0.25;;;;;;;11.24;38.59;98777.88;4770143;30;20088;-82
2022/03/04 08:49:13;;;;;;;0.00;0.00;;;;;;;11.29;38.70;98780.50;4753842;30;20570;-83
2022/03/04 08:51:39;;;;;;;0.00;0.00;;;;;;;11.40;38.21;98783.06;4752853;30;20043;-83
2022/03/04 08:54:06;;;;;;;0.20;0.20;;;;;;;11.44;37.50;98790.22;4752738;30;20093;-81
2022/03/04 08:56:33;;;;;;;0.08;0.08;;;;;;;11.36;38.47;98780.97;4753366;30;20035;-82
2022/03/04 08:58:59;;;;;;;0.03;0.03;;;;;;;11.43;38.40;98780.59;4767031;30;20035;-84
2022/03/04 09:02:45;;;;;;;0.00;0.00;;;;;;;11.80;38.67;98784.38;5072288;27;1339717;-81
2022/03/04 09:05:11;;;;;;;0.00;0.00;;;;;;;11.85;38.08;98780.81;5107222;28;20062;-80
2022/03/04 09:07:36;;;;;;;0.00;0.00;;;;;;;11.88;38.59;98779.44;5107433;28;20228;-80
2022/03/04 09:10:03;;;;;;;0.00;0.00;;;;;;;12.06;37.96;98778.69;5104346;28;20021;-80
2022/03/04 09:12:29;;;;;;;0.10;0.10;;;;;;;12.21;38.58;98782.22;5087047;28;20111;-81
2022/03/04 09:14:55;;;;;;;3.03;0.70;;;;;;;12.24;37.36;98778.91;5087152;28;20059;-83
2022/03/04 09:17:20;;;;;;;0.00;0.00;;;;;;;12.34;38.21;98781.44;5086906;28;20048;-82
2022/03/04 09:19:46;;;;;;;0.15;0.15;;;;;;;12.38;37.78;98782.44;5091239;28;20023;-81
2022/03/04 09:22:11;;;;;;;0.22;0.22;;;;;;;12.43;37.58;98785.03;5106063;28;20031;-85
2022/03/04 09:24:37;;;;;;;0.00;0.00;;;;;;;12.49;37.30;98785.75;5107500;28;20500;-85
2022/03/04 09:27:02;;;;;;;0.00;0.00;;;;;;;12.54;36.80;98782.19;5107120;28;20027;-88
2022/03/04 09:29:28;;;;;;;0.00;0.00;;;;;;;12.46;37.00;98783.66;5106571;28;20032;-84
2022/03/04 09:31:54;;;;;;;0.45;0.45;;;;;;;12.45;36.68;98780.19;5107050;28;20467;-86
2022/03/04 09:34:19;;;;;;;0.08;0.08;;;;;;;12.43;36.65;98786.94;5106875;28;20027;-87
2022/03/04 09:36:45;;;;;;;0.10;0.10;;;;;;;12.44;38.15;98778.59;5107025;28;20676;-84
2022/03/04 09:39:11;;;;;;;0.10;0.10;;;;;;;12.62;38.21;98776.13;5122827;28;20034;-84
2022/03/04 09:41:40;;;;;;;0.35;0.35;;;;;;;12.72;38.43;98781.31;5108154;28;20225;-85
2022/03/04 09:44:05;;;;;;;1.10;1.08;;;;;;;13.01;38.46;98771.38;5107305;28;20030;-86
2022/03/04 09:46:31;;;;;;;0.10;0.10;;;;;;;12.88;37.00;98771.09;5105893;28;20016;-85
2022/03/04 09:48:57;;;;;;;0.43;0.43;;;;;;;12.97;36.76;98777.38;5106877;28;20398;-88
2022/03/04 09:51:23;;;;;;;0.63;0.63;;;;;;;12.96;37.43;98775.78;5106817;28;20026;-92
2022/03/04 09:53:50;;;;;;;0.00;0.00;;;;;;;13.05;37.66;98775.88;5093084;28;20020;-83
2022/03/04 09:56:19;;;;;;;0.00;0.00;;;;;;;13.07;37.18;98771.00;5086084;28;20112;-82
2022/03/04 09:58:44;;;;;;;0.10;0.10;;;;;;;13.05;37.58;98770.50;5093801;28;20123;-83
2022/03/04 10:01:15;;;;;;;0.30;0.30;;;;;;;13.01;37.58;98766.00;5081156;28;20127;-83
2022/03/04 10:03:43;;;;;;;0.00;0.00;;;;;;;13.04;38.40;98760.06;5086154;28;20046;-82
2022/03/04 10:06:08;;;;;;;;;;;;;;;13.03;38.57;98756.56;5086542;28;20119;-83
2022/03/04 10:08:43;;;;;;;0.00;0.00;;;;;;;13.03;38.21;98758.47;5085370;28;20038;-83
2022/03/04 10:11:09;;;;;;;0.00;0.00;;;;;;;13.02;37.33;98752.28;5085927;28;20020;-81
2022/03/04 10:13:48;;;;;;;0.00;0.00;;;;;;;12.92;38.82;98755.19;5074606;28;20057;-83
2022/03/04 10:16:24;;;;;;;0.00;0.00;;;;;;;13.01;37.89;98750.72;5072109;28;20025;-85
2022/03/04 10:19:14;;;;;;;0.10;0.10;;;;;;;12.82;38.38;98750.81;5072528;28;20032;-85
2022/03/04 10:21:46;;;;;;;0.00;0.00;;;;;;;12.64;39.50;98755.16;5072607;28;20028;-84
2022/03/04 10:24:12;;;;;;;0.57;0.57;;;;;;;12.55;39.54;98747.00;5071727;28;20033;-83
2022/03/04 10:26:37;;;;;;;0.15;0.15;;;;;;;12.41;39.91;98741.63;5072146;28;20388;-81
2022/03/04 10:29:22;;;;;;;0.20;0.20;;;;;;;12.26;40.70;98747.25;5072342;28;20035;-83
2022/03/04 10:32:13;;;;;;;0.00;0.00;;;;;;;12.12;40.81;98742.66;5072360;28;20062;-81
2022/03/04 10:34:49;;;;;;;0.55;0.55;;;;;;;12.05;39.81;98746.78;5072161;28;20036;-78
2022/03/04 10:37:21;;;;;;;0.00;0.00;;;;;;;11.82;41.07;98743.91;5072116;28;20025;-79
2022/03/04 10:40:06;;;;;;;0.50;0.20;;;;;;;11.73;42.07;98741.09;5055056;28;20414;-79
2022/03/04 10:42:54;;;;;;;0.28;0.28;;;;;;;11.59;40.40;98737.53;5059682;28;20027;-80
2022/03/04 10:45:34;;;;;;;0.10;0.10;;;;;;;11.58;41.75;98736.72;5069581;28;20028;-78
2022/03/04 10:48:07;;;;;;;0.25;0.25;;;;;;;11.49;42.21;98725.09;5071371;28;20016;-80
2022/03/04 10:50:48;;;;;;;0.25;0.25;;;;;;;11.45;41.81;98732.91;5071377;28;20016;-80
2022/03/04 10:53:18;;;;;;;0.17;0.17;;;;;;;11.38;42.28;98738.63;5071683;28;20025;-78
2022/03/04 10:55:49;;;;;;;0.70;0.70;;;;;;;11.40;41.59;98738.34;5071763;28;20016;-78
2022/03/04 10:58:36;;;;;;;0.00;0.00;;;;;;;11.36;41.33;98724.75;5071439;28;20529;-81
2022/03/04 11:01:06;;;;;;;0.10;0.10;;;;;;;11.36;41.03;98729.28;5071417;28;20044;-79
2022/03/04 11:03:34;;;;;;;0.20;0.20;;;;;;;11.40;41.08;98724.16;5072160;28;20046;-80
2022/03/04 11:06:05;;;;;;;0.25;0.25;;;;;;;11.36;41.20;98719.38;5071515;28;20021;-82
2022/03/04 11:08:30;;;;;;;0.10;0.10;;;;;;;11.44;40.89;98720.59;5071064;28;20098;-79
2022/03/04 11:10:57;;;;;;;0.13;0.13;;;;;;;11.52;40.45;98721.81;5070629;28;20036;-81
2022/03/04 11:13:24;;;;;;;1.00;1.00;;;;;;;11.56;40.56;98711.34;5071115;28;20021;-81
2022/03/04 11:15:52;;;;;;;0.13;0.13;;;;;;;11.73;40.95;98714.31;5071405;28;20032;-79
2022/03/04 11:18:22;;;;;;;0.00;0.00;;;;;;;11.80;40.65;98709.38;5071176;28;20033;-80
2022/03/04 11:20:50;;;;;;;0.10;0.10;;;;;;;11.92;40.65;98703.53;5071240;28;20028;-79
2022/03/04 11:23:18;;;;;;;0.10;0.10;;;;;;;12.01;41.08;98704.50;5070541;28;20426;-79
2022/03/04 11:25:45;;;;;;;;;;;;;;;12.01;40.14;98698.31;5066259;28;20068;-79
2022/03/04 11:28:16;;;;;;;0.22;0.22;;;;;;;11.91;38.74;98699.25;5069639;28;20362;-83
2022/03/04 11:30:44;;;;;;;0.10;0.10;;;;;;;11.87;39.26;98692.13;5070194;28;20027;-82
2022/03/04 11:33:25;;;;;;;0.30;0.30;;;;;;;11.88;39.70;98697.19;5070982;28;20028;-82
2022/03/04 11:36:05;;;;;;;0.68;0.68;;;;;;;11.98;39.01;98694.34;5060254;28;20495;-81
2022/03/04 11:38:49;;;;;;;0.73;0.73;;;;;;;12.09;39.41;98686.16;5050659;28;20820;-83
2022/03/04 11:41:26;;;;;;;0.20;0.20;;;;;;;12.14;39.04;98686.06;5049810;28;20429;-83
2022/03/04 11:43:56;;;;;;;0.00;0.00;;;;;;;12.18;38.72;98687.06;5050659;28;20116;-83
2022/03/04 11:46:41;;;;;;;0.00;0.00;;;;;;;12.05;37.50;98682.47;5050312;28;20017;-82
2022/03/04 11:49:47;;;;;;;0.10;0.10;;;;;;;12.00;38.62;98675.31;5050389;28;20021;-83
2022/03/04 11:52:30;;;;;;;0.00;0.00;;;;;;;11.98;37.44;98672.13;5051502;28;20342;-83
2022/03/04 11:54:58;;;;;;;1.30;1.30;;;;;;;11.99;37.08;98676.41;5051690;28;20598;-82
2022/03/04 11:57:26;;;;;;;0.47;0.47;;;;;;;11.04;38.52;98675.34;5050055;28;20048;-83
2022/03/04 11:59:58;;;;;;;0.00;0.00;;;;;;;10.86;38.86;98671.59;5049544;28;20055;-81
2022/03/04 12:02:29;;;;;;;0.10;0.10;;;;;;;10.79;39.08;98656.97;5049230;28;20047;-82
2022/03/04 12:05:22;;;;;;;0.20;0.20;;;;;;;10.74;39.08;98655.13;5049323;28;20538;-82
2022/03/04 12:07:56;;;;;;;0.00;0.00;;;;;;;10.80;38.63;98655.88;5049548;28;20028;-83
2022/03/04 12:10:23;;;;;;;0.00;0.00;;;;;;;10.79;38.93;98646.25;5049425;28;20037;-82
2022/03/04 12:13:31;;;;;;;0.52;0.52;;;;;;;10.76;37.27;98660.22;5049750;28;20108;-83
2022/03/04 12:16:00;;;;;;;0.00;0.00;;;;;;;10.74;37.92;98647.13;5047175;28;20090;-82
2022/03/04 12:18:34;;;;;;;0.00;0.00;;;;;;;10.68;37.63;98646.41;5049452;28;20543;-82
2022/03/04 12:21:21;;;;;;;0.10;0.10;;;;;;;10.77;38.68;98645.78;5049298;28;20086;-82
2022/03/04 12:23:50;;;;;;;0.28;0.28;;;;;;;10.76;37.84;98638.81;5049159;28;20068;-82
2022/03/04 12:26:22;;;;;;;0.50;0.50;;;;;;;10.76;37.64;98638.81;5049074;28;20031;-83
2022/03/04 12:28:52;;;;;;;0.20;0.20;;;;;;;10.84;38.87;98630.94;5049294;28;20032;-83
2022/03/04 12:31:24;;;;;;;0.65;0.45;;;;;;;10.91;37.72;98635.94;5049175;28;20614;-83
2022/03/04 12:33:58;;;;;;;0.75;0.75;;;;;;;10.95;37.47;98639.63;5049283;28;20388;-84
2022/03/04 12:36:26;;;;;;;0.32;0.32;;;;;;;10.93;37.46;98625.75;5048773;28;20029;-83
2022/03/04 12:38:58;;;;;;;0.00;0.00;;;;;;;10.93;37.70;98633.78;5049215;28;20031;-82
2022/03/04 12:41:27;;;;;;;0.38;0.38;;;;;;;10.94;36.95;98635.38;5048775;28;20029;-83
2022/03/04 12:43:54;;;;;;;0.08;0.08;;;;;;;10.94;36.84;98626.56;5049199;28;20013;-83
2022/03/04 12:46:22;;;;;;;0.30;0.30;;;;;;;11.01;37.11;98626.97;5048573;28;20087;-84
2022/03/04 12:48:50;;;;;;;0.10;0.10;;;;;;;11.07;36.86;98625.03;5048704;28;20029;-84
2022/03/04 12:51:28;;;;;;;0.08;0.08;;;;;;;11.13;36.71;98622.00;5048805;28;20256;-84
2022/03/04 12:53:55;;;;;;;;;;;;;;;11.19;36.72;98625.38;5049456;28;20029;-82
2022/03/04 12:56:22;;;;;;;0.13;0.13;;;;;;;11.15;35.63;98629.75;5048485;28;19991;-83
2022/03/04 12:58:52;;;;;;;0.93;0.90;;;;;;;11.09;35.74;98620.97;5049068;28;20044;-82
2022/03/04 13:01:21;;;;;;;0.60;0.60;;;;;;;11.11;34.73;98628.72;5048383;28;20056;-82
2022/03/04 13:03:52;;;;;;;0.47;0.30;;;;;;;11.04;35.45;98619.16;5049002;28;20024;-83
2022/03/04 13:06:19;;;;;;;0.20;0.20;;;;;;;11.07;35.40;98620.50;5048570;28;20029;-82
2022/03/04 13:08:55;;;;;;;0.10;0.10;;;;;;;11.04;36.64;98613.03;5048977;28;20060;-81
2022/03/04 13:11:31;;;;;;;0.20;0.20;;;;;;;11.10;36.56;98622.56;5048828;28;20032;-82
2022/03/04 13:14:04;;;;;;;0.15;0.15;;;;;;;11.17;35.76;98628.34;5048877;28;20079;-82
2022/03/04 13:16:46;;;;;;;0.40;0.40;;;;;;;11.12;34.57;98633.78;5048630;28;20032;-83
2022/03/04 13:19:16;;;;;;;0.03;0.03;;;;;;;11.09;34.62;98634.34;5048883;28;20499;-83
2022/03/04 13:21:43;;;;;;;0.20;0.20;;;;;;;11.04;34.15;98624.50;5048805;28;20357;-83
2022/03/04 13:24:40;;;;;;;0.30;0.30;;;;;;;11.05;34.63;98626.09;5048685;28;20112;-84
2022/03/04 13:27:16;;;;;;;0.20;0.20;;;;;;;11.04;32.17;98629.09;5040333;28;20037;-83
2022/03/04 13:30:08;;;;;;;0.20;0.20;;;;;;;11.05;33.36;98636.03;5048648;28;20025;-83
2022/03/04 13:32:44;;;;;;;0.00;0.00;;;;;;;11.05;33.01;98633.34;5044849;28;20037;-84
2022/03/04 13:35:10;;;;;;;0.20;0.20;;;;;;;11.10;33.31;98640.53;5048637;28;20082;-83
2022/03/04 13:37:41;;;;;;;0.40;0.40;;;;;;;11.07;31.65;98633.06;5048551;28;20029;-84
2022/03/04 13:40:16;;;;;;;0.10;0.08;;;;;;;11.08;32.98;98635.44;5048709;28;20037;-84
2022/03/04 13:42:43;;;;;;;0.00;0.00;;;;;;;11.11;33.06;98637.56;5048675;28;20472;-84
2022/03/04 13:45:13;;;;;;;0.00;0.00;;;;;;;11.07;33.57;98636.56;5048896;28;20472;-84
2022/03/04 13:47:56;;;;;;;0.00;0.00;;;;;;;11.44;33.51;98642.97;5050236;28;20020;-84
2022/03/04 13:50:22;;;;;;;0.00;0.00;;;;;;;11.12;33.88;98641.81;5052646;28;20037;-82
2022/03/04 13:52:49;;;;;;;0.00;0.00;;;;;;;11.02;32.41;98634.72;5052907;28;20075;-84
2022/03/04 13:55:15;;;;;;;0.10;0.10;;;;;;;11.05;34.02;98634.13;5052691;28;20025;-86
2022/03/04 13:57:41;;;;;;;0.10;0.10;;;;;;;11.08;34.29;98642.69;5052834;28;20021;-82
2022/03/04 14:00:11;;;;;;;0.68;0.68;;;;;;;11.00;33.43;98634.22;5052744;28;20395;-83
2022/03/04 14:02:48;;;;;;;0.00;0.00;;;;;;;10.98;33.93;98630.25;5052081;28;20052;-84
2022/03/04 14:05:34;;;;;;;0.40;0.40;;;;;;;10.93;34.38;98620.41;5052473;28;20571;-84
2022/03/04 14:08:05;;;;;;;7.32;0.90;;;;;;;11.00;35.11;98628.88;5052489;28;20060;-84
2022/03/04 14:10:32;;;;;;;0.22;0.22;;;;;;;11.04;33.84;98621.84;5052449;28;20498;-83
2022/03/04 14:13:00;;;;;;;0.35;0.35;;;;;;;11.13;34.51;98627.34;5052479;28;20504;-83
2022/03/04 14:15:26;;;;;;;0.00;0.00;;;;;;;11.13;34.60;98622.00;5052347;28;20040;-83
2022/03/04 14:17:57;;;;;;;0.00;0.00;;;;;;;11.09;34.04;98620.97;5052429;28;20256;-82
2022/03/04 14:20:25;;;;;;;0.00;0.00;;;;;;;11.12;34.32;98624.94;5052106;28;20021;-83
2022/03/04 14:22:51;;;;;;;0.00;0.00;;;;;;;11.11;34.48;98624.16;5052286;28;20017;-82
2022/03/04 14:25:17;;;;;;;0.85;0.85;;;;;;;11.12;34.96;98625.75;5052133;28;20024;-84
2022/03/04 14:27:48;;;;;;;0.20;0.20;;;;;;;11.11;33.82;98626.03;5052211;28;20032;-83
2022/03/04 14:30:17;;;;;;;0.00;0.00;;;;;;;11.07;34.18;98617.00;5051765;28;20025;-84
2022/03/04 14:32:43;;;;;;;0.00;0.00;;;;;;;11.15;34.41;98619.81;5051940;28;20483;-82
2022/03/04 14:35:09;;;;;;;0.30;0.25;;;;;;;11.19;34.30;98617.34;5051836;28;20029;-84
2022/03/04 14:37:35;;;;;;;0.00;0.00;;;;;;;11.20;34.14;98610.94;5051507;28;20020;-84
2022/03/04 14:40:00;;;;;;;0.10;0.10;;;;;;;11.26;33.77;98615.13;5052004;28;20066;-83
2022/03/04 14:42:26;;;;;;;0.00;0.00;;;;;;;11.28;34.26;98612.13;5051709;28;20404;-83
2022/03/04 14:44:51;;;;;;;0.00;0.00;;;;;;;11.25;33.53;98616.19;5052041;28;20489;-84
2022/03/04 14:47:18;;;;;;;0.00;0.00;;;;;;;11.25;34.01;98608.16;5051729;28;20028;-83
2022/03/04 14:49:43;;;;;;;0.00;0.00;;;;;;;11.22;33.80;98606.09;5051879;28;20017;-84
2022/03/04 14:52:10;;;;;;;0.00;0.00;;;;;;;11.20;34.46;98611.72;5051662;28;20124;-83
2022/03/04 14:54:35;;;;;;;0.10;0.10;;;;;;;11.23;35.50;98605.00;5051480;28;20056;-84
2022/03/04 14:57:03;;;;;;;0.00;0.00;;;;;;;11.18;34.86;98613.09;5051643;28;20519;-83
2022/03/04 14:59:30;;;;;;;0.00;0.00;;;;;;;11.11;34.51;98613.47;5051085;28;20021;-84
2022/03/04 15:01:56;;;;;;;0.00;0.00;;;;;;;11.09;34.24;98607.59;5051056;28;20186;-83
2022/03/04 15:04:22;;;;;;;0.10;0.10;;;;;;;11.13;34.91;98610.50;5051205;28;20035;-83
2022/03/04 15:06:48;;;;;;;0.00;0.00;;;;;;;11.14;34.64;98615.53;5060218;28;20024;-86
2022/03/04 15:09:15;;;;;;;0.00;0.00;;;;;;;11.13;34.80;98623.88;5070267;28;20024;-83
2022/03/04 15:11:42;;;;;;;0.15;0.15;;;;;;;11.14;33.99;98628.94;5071135;28;20032;-85
2022/03/04 15:14:08;;;;;;;0.00;0.00;;;;;;;11.11;34.14;98624.16;5071569;28;20105;-82
2022/03/04 15:16:33;;;;;;;0.10;0.10;;;;;;;11.16;33.64;98621.41;5071089;28;20029;-85
2022/03/04 15:18:59;;;;;;;0.00;0.00;;;;;;;11.12;33.52;98631.13;5071398;28;20105;-83
2022/03/04 15:21:24;;;;;;;0.00;0.00;;;;;;;11.11;34.20;98629.53;5070974;28;20028;-80
2022/03/04 15:23:50;;;;;;;0.00;0.00;;;;;;;11.14;34.15;98634.28;5069843;28;20051;-81
2022/03/04 15:26:15;;;;;;;0.08;0.08;;;;;;;11.16;34.28;98639.38;5068605;28;20021;-84
2022/03/04 15:28:41;;;;;;;0.00;0.00;;;;;;;11.15;33.95;98645.78;5051016;28;20021;-84
2022/03/04 15:31:06;;;;;;;0.00;0.00;;;;;;;11.16;34.16;98642.03;5051053;28;20032;-81
2022/03/04 15:33:31;;;;;;;0.00;0.00;;;;;;;11.15;34.18;98651.16;5050586;28;20384;-85
2022/03/04 15:35:59;;;;;;;0.00;0.00;;;;;;;11.11;33.62;98640.22;5051043;28;20033;-82
2022/03/04 15:38:26;;;;;;;0.03;0.03;;;;;;;11.11;33.74;98642.09;5057711;28;20111;-85
2022/03/04 15:40:51;;;;;;;0.00;0.00;;;;;;;11.10;33.81;98646.66;5070159;28;20024;-85
2022/03/04 15:43:17;;;;;;;0.00;0.00;;;;;;;11.08;34.03;98642.69;5070583;28;20418;-85
2022/03/04 15:45:44;;;;;;;0.00;0.00;;;;;;;11.07;34.04;98643.75;5069905;28;20086;-81
2022/03/04 15:48:10;;;;;;;0.00;0.00;;;;;;;11.08;34.16;98640.00;5070422;28;20029;-88
2022/03/04 15:50:36;;;;;;;0.10;0.10;;;;;;;11.05;33.87;98646.75;5070383;28;20187;-90
2022/03/04 15:53:03;;;;;;;0.20;0.20;;;;;;;10.98;34.41;98646.28;5070036;28;20033;-81
2022/03/04 15:55:29;;;;;;;0.00;0.00;;;;;;;10.97;34.74;98639.34;5068425;28;20020;-88
2022/03/04 15:57:54;;;;;;;0.00;0.00;;;;;;;10.97;35.23;98647.38;5050395;28;20115;-81
2022/03/04 16:00:20;;;;;;;0.00;0.00;;;;;;;10.96;34.78;98651.13;5055801;28;20464;-83
2022/03/04 16:02:45;;;;;;;0.00;0.00;;;;;;;10.95;34.86;98647.66;5050013;28;20072;-86
2022/03/04 16:05:12;;;;;;;0.00;0.00;;;;;;;10.96;35.30;98646.59;5062763;28;20027;-92
2022/03/04 16:07:38;;;;;;;0.00;0.00;;;;;;;10.96;34.84;98651.13;5066219;28;20588;-88
2022/03/04 16:10:04;;;;;;;0.00;0.00;;;;;;;10.93;34.91;98649.03;5063583;28;20049;-80
2022/03/04 16:12:29;;;;;;;0.00;0.00;;;;;;;10.93;34.90;98654.41;5067669;28;20111;-86
2022/03/04 16:14:58;;;;;;;0.00;0.00;;;;;;;10.92;35.17;98648.22;5069222;28;20103;-86
2022/03/04 16:17:23;;;;;;;;;;;;;;;10.92;35.50;98655.47;5070178;28;20059;-88
2022/03/04 16:19:49;;;;;;;0.00;0.00;;;;;;;10.88;34.69;98656.03;5069576;28;20005;-88
2022/03/04 16:22:14;;;;;;;0.00;0.00;;;;;;;10.86;34.73;98652.88;5085893;28;20024;-87
2022/03/04 16:24:40;;;;;;;0.00;0.00;;;;;;;10.87;34.26;98661.69;5069356;28;20403;-86
2022/03/04 16:27:06;;;;;;;0.00;0.00;;;;;;;10.85;35.00;98653.13;5069703;28;20086;-81
2022/03/04 16:29:32;;;;;;;0.00;0.00;;;;;;;10.81;34.21;98658.25;5069549;28;20513;-82
2022/03/04 16:31:58;;;;;;;0.00;0.00;;;;;;;10.80;34.66;98661.22;5069802;28;20048;-82
2022/03/04 16:34:23;;;;;;;0.00;0.00;;;;;;;10.79;34.70;98665.78;5066803;28;20037;-91
2022/03/04 16:36:50;;;;;;;0.00;0.00;;;;;;;10.79;34.15;98660.44;5070245;28;20021;-90
2022/03/04 16:39:17;;;;;;;0.00;0.00;;;;;;;10.75;34.24;98656.72;5051819;28;20484;-86
2022/03/04 16:41:43;;;;;;;0.10;0.10;;;;;;;10.71;33.81;98653.06;5067248;28;20028;-93
2022/03/04 16:44:09;;;;;;;0.00;0.00;;;;;;;10.68;34.35;98665.13;5062739;28;20101;-82
2022/03/04 16:46:36;;;;;;;0.00;0.00;;;;;;;10.68;34.77;98666.97;5068052;28;20047;-89
2022/03/04 16:49:02;;;;;;;0.00;0.00;;;;;;;10.66;38.20;98672.63;5069607;28;20031;-91
2022/03/04 16:51:34;;;;;;;0.10;0.10;;;;;;;10.60;39.36;98672.97;5061990;28;20024;-91
2022/03/04 16:54:00;;;;;;;0.70;0.70;;;;;;;10.48;40.53;98674.16;5057350;28;20387;-80
2022/03/04 16:56:27;;;;;;;0.00;0.00;;;;;;;10.46;40.67;98678.19;5063505;28;20028;-90
2022/03/04 16:58:52;;;;;;;0.00;0.00;;;;;;;10.42;40.75;98667.28;5068918;28;20472;-81
2022/03/04 17:01:45;;;;;;;0.00;0.00;;;;;;;10.37;41.07;98668.13;5062643;28;20045;-92
2022/03/04 17:04:11;;;;;;;0.22;0.22;;;;;;;10.34;41.12;98666.00;5047655;28;20032;-86
2022/03/04 17:07:03;;;;;;;0.00;0.00;;;;;;;10.37;41.46;98676.13;5058427;28;20089;-95
2022/03/04 17:09:29;;;;;;;0.00;0.00;;;;;;;10.32;41.58;98672.72;5069982;28;20025;-90
2022/03/04 17:11:55;;;;;;;0.00;0.00;;;;;;;10.25;41.21;98673.03;5052979;28;20047;-90
2022/03/04 17:14:21;;;;;;;0.03;0.03;;;;;;;10.21;41.54;98674.69;5068702;28;20033;-91
2022/03/04 17:16:47;;;;;;;0.10;0.10;;;;;;;10.19;41.92;98680.31;5063570;28;20122;-88
2022/03/04 17:19:12;;;;;;;0.10;0.10;;;;;;;10.18;42.40;98685.94;5056424;28;20040;-90
2022/03/04 17:21:39;;;;;;;0.00;0.00;;;;;;;10.19;42.44;98684.84;5065302;28;20036;-96
2022/03/04 17:24:05;;;;;;;0.00;0.00;;;;;;;10.18;42.29;98693.94;5064765;28;20079;-90
2022/03/04 17:26:30;;;;;;;0.00;0.00;;;;;;;10.14;42.71;98688.38;5058932;28;20060;-90
2022/03/04 17:28:56;;;;;;;0.05;0.05;;;;;;;10.12;42.92;98695.06;5053295;28;20059;-85
2022/03/04 17:31:21;;;;;;;0.00;0.00;;;;;;;10.10;42.85;98696.16;5063628;28;20456;-79
2022/03/04 17:33:47;;;;;;;0.15;0.15;;;;;;;10.07;43.07;98694.03;5060495;28;20029;-85
2022/03/04 17:36:13;;;;;;;0.15;0.15;;;;;;;10.02;43.07;98702.13;5054577;28;20044;-91
2022/03/04 17:38:40;;;;;;;0.45;0.45;;;;;;;9.99;43.47;98708.00;5054321;28;20112;-88
2022/03/04 17:41:07;;;;;;;0.00;0.00;;;;;;;9.99;43.61;98708.00;5055631;28;20147;-89
2022/03/04 17:43:33;;;;;;;0.10;0.10;;;;;;;9.96;44.21;98711.25;5037269;28;20029;-92